Aparecida do Rio Negro, Brazil
Current Conditions -  °F | °C
As of 4:00 PM on Tuesday 27 Jan 2015 (Local Time) from SBPJ Reporting Station
Thunderstorm Thunderstorm  
Wind Chill: 88°   Ceiling: Unl
Heat Index: 91°   Visibility: 6mi
Dew Point: 68°   Wind: 5mph
Humidity: 52%   Direction: 200°SSW
Pressure: 29.83"   Gusts: NA
Location:  9.95°S, 47.97°W
Report Text: SBPJ 271900Z 20004KT 9999 TS VCSH SCT025 FEW027CB 31/20 Q1010
Loading
Personal Weather Stations






























Interactive Weather Map New forecast layout! Learn more

10-Day Weather Forecast

Advertisements
Track Severe Weather on mobile